createdAt,value
2018-02-06T00:00:53.824Z,-1.40
2018-02-06T00:03:28.833Z,-1.40
2018-02-06T00:05:57.440Z,-1.30
2018-02-06T00:08:25.863Z,-1.30
2018-02-06T00:13:53.779Z,-1.30
2018-02-06T00:22:51.633Z,-1.40
2018-02-06T00:25:31.938Z,-1.40
2018-02-06T00:32:04.652Z,-1.50
2018-02-06T00:40:57.135Z,-1.70
2018-02-06T00:43:35.752Z,-1.80
2018-02-06T00:46:08.260Z,-1.70
2018-02-06T00:48:37.130Z,-1.60
2018-02-06T00:51:07.000Z,-1.90
2018-02-06T00:53:35.915Z,-1.90
2018-02-06T00:56:04.819Z,-1.80
2018-02-06T00:58:33.357Z,-1.90
2018-02-06T01:04:28.016Z,-1.80
2018-02-06T01:07:04.582Z,-1.70
2018-02-06T01:09:44.938Z,-1.70
2018-02-06T01:12:17.402Z,-1.60
2018-02-06T01:17:31.152Z,-1.60
2018-02-06T01:20:23.870Z,-1.70
2018-02-06T01:23:00.616Z,-1.70
2018-02-06T01:25:41.113Z,-1.70
2018-02-06T01:31:21.491Z,-1.60
2018-02-06T01:34:06.051Z,-1.90
2018-02-06T01:36:42.206Z,-1.80
2018-02-06T01:39:14.396Z,-1.90
2018-02-06T01:41:46.116Z,-1.90
2018-02-06T01:44:18.203Z,-2.00
2018-02-06T01:46:53.617Z,-1.80
2018-02-06T01:49:23.849Z,-1.70
2018-02-06T01:51:52.904Z,-2.00
2018-02-06T01:54:31.738Z,-1.90
2018-02-06T01:57:00.138Z,-1.80
2018-02-06T01:59:43.757Z,-1.80
2018-02-06T02:02:31.363Z,-2.00
2018-02-06T02:05:01.272Z,-1.90
2018-02-06T02:07:39.654Z,-2.00
2018-02-06T02:10:19.441Z,-2.00
2018-02-06T02:12:48.496Z,-2.10
2018-02-06T02:15:16.811Z,-1.90
2018-02-06T02:17:45.767Z,-2.00
2018-02-06T02:20:14.454Z,-2.00
2018-02-06T02:22:43.432Z,-2.00
2018-02-06T02:25:11.942Z,-2.10
2018-02-06T02:27:41.010Z,-2.30
2018-02-06T02:30:11.212Z,-2.30
2018-02-06T02:32:43.575Z,-2.40
2018-02-06T02:35:18.075Z,-2.30
2018-02-06T02:37:52.431Z,-2.40
2018-02-06T04:38:26.072Z,-2.40
2018-02-06T04:40:54.875Z,-2.40
2018-02-06T04:43:23.537Z,-2.30
2018-02-06T04:45:53.061Z,-2.20
2018-02-06T04:48:21.337Z,-2.10
2018-02-06T04:50:49.682Z,-2.10
2018-02-06T04:53:18.092Z,-2.20
2018-02-06T04:55:46.578Z,-2.20
2018-02-06T04:58:15.401Z,-2.10
2018-02-06T05:00:43.496Z,-2.30
2018-02-06T05:03:13.676Z,-2.30
2018-02-06T05:05:50.952Z,-2.30
2018-02-06T05:08:19.764Z,-2.20
2018-02-06T05:10:48.722Z,-2.20
2018-02-06T05:13:17.300Z,-2.20
2018-02-06T05:15:45.792Z,-2.20
2018-02-06T05:18:14.160Z,-2.10
2018-02-06T05:20:42.260Z,-2.20
2018-02-06T05:23:10.371Z,-2.10
2018-02-06T05:25:38.479Z,-2.20
2018-02-06T05:28:06.571Z,-2.20
2018-02-06T05:30:35.077Z,-2.20
2018-02-06T05:33:03.944Z,-2.20
2018-02-06T05:35:32.431Z,-2.20
2018-02-06T05:38:01.336Z,-2.30
2018-02-06T05:40:30.616Z,-2.30
2018-02-06T05:42:58.815Z,-2.20
2018-02-06T05:45:26.976Z,-2.30
2018-02-06T05:47:55.230Z,-2.20
2018-02-06T05:50:23.318Z,-2.20
2018-02-06T05:52:52.277Z,-2.30
2018-02-06T05:55:20.463Z,-2.20
2018-02-06T05:57:49.736Z,-2.40
2018-02-06T06:00:18.248Z,-2.30
2018-02-06T06:02:46.359Z,-2.20
2018-02-06T06:05:15.548Z,-2.40
2018-02-06T06:07:44.919Z,-2.40
2018-02-06T06:10:13.124Z,-2.40
2018-02-06T06:12:42.524Z,-2.40
2018-02-06T06:15:10.779Z,-2.30
2018-02-06T06:17:38.877Z,-2.40
2018-02-06T06:20:07.227Z,-2.30
2018-02-06T06:22:35.495Z,-2.40
2018-02-06T06:25:03.986Z,-2.40
2018-02-06T06:27:32.481Z,-2.40
2018-02-06T06:30:00.901Z,-2.30
2018-02-06T06:32:29.325Z,-2.30
2018-02-06T06:34:57.958Z,-2.30
2018-02-06T06:37:26.390Z,-2.30
2018-02-06T06:39:54.786Z,-2.30
2018-02-06T06:42:23.070Z,-2.30
2018-02-06T06:44:52.857Z,-2.30
2018-02-06T06:47:21.335Z,-2.30
2018-02-06T06:49:51.076Z,-2.40
2018-02-06T06:52:20.368Z,-2.50
2018-02-06T06:54:48.465Z,-2.40
2018-02-06T06:57:16.563Z,-2.40
2018-02-06T06:59:44.879Z,-2.50
2018-02-06T07:02:13.128Z,-2.50
2018-02-06T07:04:41.240Z,-2.40
2018-02-06T07:07:10.104Z,-2.50
2018-02-06T07:09:38.492Z,-2.50
2018-02-06T07:12:06.972Z,-2.50
2018-02-06T07:14:35.229Z,-2.40
2018-02-06T07:17:03.343Z,-2.50
2018-02-06T07:19:32.223Z,-2.40
2018-02-06T07:22:00.329Z,-2.40
2018-02-06T07:24:28.444Z,-2.40
2018-02-06T07:26:56.560Z,-2.50
2018-02-06T07:29:24.728Z,-2.40
2018-02-06T07:31:53.619Z,-2.40
2018-02-06T07:34:22.492Z,-2.40
2018-02-06T07:36:50.599Z,-2.30
2018-02-06T07:39:18.710Z,-2.40
2018-02-06T07:41:46.844Z,-2.40
2018-02-06T07:44:15.756Z,-2.30
2018-02-06T07:46:43.843Z,-2.30
2018-02-06T07:49:11.955Z,-2.30
2018-02-06T07:51:40.042Z,-2.30
2018-02-06T07:54:08.134Z,-2.30
2018-02-06T07:56:36.260Z,-2.30
2018-02-06T07:59:04.343Z,-2.40
2018-02-06T08:01:32.464Z,-2.40
2018-02-06T08:04:00.608Z,-2.30
2018-02-06T08:06:28.724Z,-2.20
2018-02-06T08:08:56.832Z,-2.10
2018-02-06T08:11:24.951Z,-2.20
2018-02-06T08:13:53.038Z,-2.20
2018-02-06T08:16:21.147Z,-2.10
2018-02-06T08:18:49.229Z,-2.00
2018-02-06T08:21:18.099Z,-2.00
2018-02-06T08:23:46.695Z,-2.00
2018-02-06T08:26:14.796Z,-1.90
2018-02-06T08:28:42.915Z,-1.90
2018-02-06T08:31:11.000Z,-1.90
2018-02-06T08:33:39.126Z,-1.90
2018-02-06T08:36:07.375Z,-1.90
2018-02-06T08:38:35.472Z,-2.00
2018-02-06T08:41:03.588Z,-1.90
2018-02-06T08:43:31.700Z,-1.90
2018-02-06T08:46:00.616Z,-1.90
2018-02-06T08:48:28.668Z,-1.90
2018-02-06T08:50:56.787Z,-1.90
2018-02-06T08:53:24.874Z,-1.80
2018-02-06T08:55:53.258Z,-1.80
2018-02-06T08:58:21.423Z,-1.70
2018-02-06T09:00:49.530Z,-1.80
2018-02-06T09:03:18.410Z,-1.70
2018-02-06T09:05:47.267Z,-1.70
2018-02-06T09:08:15.367Z,-1.70
2018-02-06T09:10:43.482Z,-1.70
2018-02-06T09:13:11.587Z,-1.70
2018-02-06T09:15:39.860Z,-1.60
2018-02-06T09:18:09.602Z,-1.60
2018-02-06T09:20:39.924Z,-1.50
2018-02-06T09:23:25.828Z,-1.50
2018-02-06T09:25:57.145Z,-1.40
2018-02-06T09:28:34.278Z,-1.40
2018-02-06T09:31:02.506Z,-1.30
2018-02-06T09:33:31.038Z,-1.40
2018-02-06T09:35:59.214Z,-1.30
2018-02-06T09:38:27.566Z,-1.20
2018-02-06T09:40:56.435Z,-1.20
2018-02-06T09:43:24.535Z,-1.20
2018-02-06T09:45:52.656Z,-1.20
2018-02-06T09:48:20.773Z,-1.20
2018-02-06T09:50:49.656Z,-1.20
2018-02-06T09:53:17.758Z,-1.10
2018-02-06T09:55:45.856Z,-1.00
2018-02-06T09:58:13.982Z,-0.80
2018-02-06T10:00:42.087Z,-0.80
2018-02-06T10:03:10.183Z,-0.70
2018-02-06T10:05:38.317Z,-0.60
2018-02-06T10:08:06.417Z,-0.60
2018-02-06T10:10:34.542Z,-0.60
2018-02-06T10:13:02.667Z,-0.50
2018-02-06T10:15:30.771Z,-0.40
2018-02-06T10:17:59.439Z,-0.40
2018-02-06T10:20:27.523Z,-0.30
2018-02-06T10:22:56.358Z,-0.30
2018-02-06T10:25:24.863Z,-0.20
2018-02-06T10:27:53.730Z,-0.20
2018-02-06T10:30:21.853Z,-0.10
2018-02-06T10:32:49.923Z,-0.10
2018-02-06T10:35:18.028Z,-0.10
2018-02-06T10:37:46.133Z,-0.10
2018-02-06T10:40:14.226Z,-0.10
2018-02-06T10:42:42.321Z,-0.10
2018-02-06T10:45:10.405Z,0.00
2018-02-06T10:47:38.495Z,0.00
2018-02-06T10:50:07.368Z,0.10
2018-02-06T10:52:35.515Z,0.20
2018-02-06T10:55:03.611Z,0.30
2018-02-06T10:57:31.702Z,0.40
2018-02-06T11:00:00.563Z,0.40
2018-02-06T11:02:28.676Z,0.50
2018-02-06T11:04:56.883Z,0.40
2018-02-06T11:07:24.988Z,0.30
2018-02-06T11:09:53.086Z,0.40
2018-02-06T11:12:21.943Z,0.50
2018-02-06T11:14:50.055Z,0.40
2018-02-06T11:17:18.922Z,0.40
2018-02-06T11:19:47.012Z,0.50
2018-02-06T11:22:15.138Z,0.50
2018-02-06T11:24:43.222Z,0.60
2018-02-06T11:27:11.328Z,0.50
2018-02-06T11:29:39.791Z,0.60
2018-02-06T11:32:08.182Z,0.60
2018-02-06T11:34:36.432Z,0.70
2018-02-06T11:37:04.550Z,0.70
2018-02-06T11:39:42.888Z,0.80
2018-02-06T11:42:10.976Z,0.80
2018-02-06T11:44:57.236Z,0.80
2018-02-06T11:47:27.337Z,0.80
2018-02-06T11:49:56.189Z,0.90
2018-02-06T11:52:24.275Z,1.00
2018-02-06T11:54:52.475Z,1.00
2018-02-06T11:57:21.864Z,1.10
2018-02-06T11:59:50.880Z,1.00
2018-02-06T12:02:18.979Z,1.00
2018-02-06T12:04:47.080Z,0.90
2018-02-06T12:07:15.196Z,0.90
2018-02-06T12:09:44.151Z,0.70
2018-02-06T12:12:12.236Z,0.60
2018-02-06T12:14:40.378Z,0.50
2018-02-06T12:17:08.481Z,0.50
2018-02-06T12:19:36.601Z,0.50
2018-02-06T12:22:04.723Z,0.60
2018-02-06T12:24:32.936Z,0.60
2018-02-06T12:27:01.239Z,0.60
2018-02-06T12:29:36.933Z,0.70
2018-02-06T12:32:08.576Z,0.70
2018-02-06T12:34:38.468Z,0.70
2018-02-06T12:37:09.328Z,0.50
2018-02-06T12:39:38.465Z,0.40
2018-02-06T12:42:07.278Z,0.50
2018-02-06T12:44:35.895Z,0.60
2018-02-06T12:47:03.979Z,0.60
2018-02-06T12:49:34.069Z,0.60
2018-02-06T12:52:04.620Z,0.50
2018-02-06T12:54:32.746Z,0.60
2018-02-06T12:57:06.365Z,0.50
2018-02-06T12:59:34.482Z,0.60
2018-02-06T13:02:02.614Z,0.60
2018-02-06T13:04:33.503Z,0.60
2018-02-06T13:07:02.347Z,0.60
2018-02-06T13:09:30.454Z,0.60
2018-02-06T13:11:58.544Z,0.60
2018-02-06T13:14:27.473Z,0.60
2018-02-06T13:16:55.512Z,0.60
2018-02-06T13:19:24.979Z,0.50
2018-02-06T13:21:53.124Z,0.50
2018-02-06T13:24:22.026Z,0.50
2018-02-06T13:26:52.307Z,0.60
2018-02-06T13:29:20.478Z,0.50
2018-02-06T13:31:48.614Z,0.50
2018-02-06T13:34:16.698Z,0.50
2018-02-06T13:36:44.822Z,0.50
2018-02-06T13:39:13.150Z,0.50
2018-02-06T13:41:41.965Z,0.50
2018-02-06T13:44:10.065Z,0.50
2018-02-06T13:46:39.904Z,0.60
2018-02-06T13:49:08.059Z,0.50
2018-02-06T13:51:36.180Z,0.50
2018-02-06T13:54:11.709Z,0.50
2018-02-06T13:56:39.848Z,0.50
2018-02-06T13:59:07.958Z,0.50
2018-02-06T14:01:36.959Z,0.50
2018-02-06T14:04:08.209Z,0.40
2018-02-06T14:06:36.436Z,0.50
2018-02-06T14:09:06.197Z,0.50
2018-02-06T14:11:35.698Z,0.50
2018-02-06T14:14:08.142Z,0.50
2018-02-06T14:16:41.175Z,0.50
2018-02-06T14:19:20.900Z,0.50
2018-02-06T14:22:13.652Z,0.40
2018-02-06T14:25:02.283Z,0.40
2018-02-06T14:34:15.429Z,0.30
2018-02-06T14:37:02.145Z,0.40
2018-02-06T14:46:44.673Z,0.30
2018-02-06T14:55:48.344Z,0.30
2018-02-06T14:58:35.744Z,0.30
2018-02-06T15:03:50.522Z,0.30
2018-02-06T15:06:25.516Z,0.40
2018-02-06T15:09:00.417Z,0.30
2018-02-06T15:11:28.674Z,0.30
2018-02-06T15:13:56.802Z,0.40
2018-02-06T15:16:30.111Z,0.40
2018-02-06T15:19:00.386Z,0.40
2018-02-06T15:21:28.611Z,0.30
2018-02-06T15:23:57.955Z,0.40
2018-02-06T15:26:26.480Z,0.40
2018-02-06T15:29:03.102Z,0.40
2018-02-06T15:31:43.903Z,0.40
2018-02-06T15:34:12.059Z,0.40
2018-02-06T15:36:40.188Z,0.40
2018-02-06T15:39:08.272Z,0.40
2018-02-06T16:14:28.403Z,0.30
2018-02-06T16:16:58.689Z,0.20
2018-02-06T16:19:52.145Z,-1.30
2018-02-06T16:22:20.300Z,0.10
2018-02-06T16:24:48.416Z,0.20
2018-02-06T16:27:16.570Z,0.10
2018-02-06T16:29:45.512Z,0.10
2018-02-06T16:32:13.636Z,0.10
2018-02-06T16:34:41.828Z,0.00
2018-02-06T16:37:09.987Z,0.00
2018-02-06T16:39:40.589Z,0.00
2018-02-06T16:42:09.734Z,0.00
2018-02-06T16:44:39.001Z,0.00
2018-02-06T16:47:07.115Z,-0.10
2018-02-06T16:49:35.244Z,-0.10
2018-02-06T16:52:03.366Z,-0.10
2018-02-06T16:54:31.453Z,-0.10
2018-02-06T16:57:00.364Z,-0.20
2018-02-06T16:59:28.511Z,-0.20
2018-02-06T17:01:56.628Z,-0.20
2018-02-06T17:04:24.751Z,-0.20
2018-02-06T17:06:52.858Z,-0.20
2018-02-06T17:09:20.973Z,-0.20
2018-02-06T17:11:49.073Z,-0.20
2018-02-06T17:14:17.185Z,-0.20
2018-02-06T17:16:45.287Z,-0.20
2018-02-06T17:19:14.157Z,-0.20
2018-02-06T17:21:42.248Z,-0.20
2018-02-06T17:24:11.149Z,-0.20
2018-02-06T17:26:40.007Z,-0.20
2018-02-06T17:29:08.095Z,-0.20
2018-02-06T17:31:36.964Z,-0.20
2018-02-06T17:34:05.054Z,-0.20
2018-02-06T17:36:33.173Z,-0.30
2018-02-06T17:39:01.340Z,-0.40
2018-02-06T17:41:29.446Z,-0.30
2018-02-06T17:43:57.542Z,-0.30
2018-02-06T17:46:25.636Z,-0.30
2018-02-06T17:48:53.757Z,-0.20
2018-02-06T17:51:22.693Z,-0.30
2018-02-06T17:53:51.580Z,-0.20
2018-02-06T17:56:19.701Z,-0.20
2018-02-06T17:58:47.812Z,-0.20
2018-02-06T18:01:15.904Z,-0.20
2018-02-06T18:03:44.770Z,-0.20
2018-02-06T18:06:12.883Z,-0.20
2018-02-06T18:08:40.978Z,-0.20
2018-02-06T18:11:09.092Z,-0.20
2018-02-06T18:13:37.442Z,-0.20
2018-02-06T18:16:05.559Z,-0.20
2018-02-06T18:18:49.366Z,-0.20
2018-02-06T18:21:17.504Z,-0.30
2018-02-06T18:23:45.610Z,-0.20
2018-02-06T18:26:14.869Z,-0.20
2018-02-06T18:28:43.023Z,-0.20
2018-02-06T18:31:11.912Z,-0.20
2018-02-06T18:33:40.783Z,-0.10
2018-02-06T18:36:08.890Z,-0.10
2018-02-06T18:38:37.019Z,-0.10
2018-02-06T18:41:05.199Z,-0.20
2018-02-06T18:43:34.791Z,-0.10
2018-02-06T19:01:54.589Z,-0.30
2018-02-06T19:04:22.709Z,-0.30
2018-02-06T19:06:50.826Z,-0.20
2018-02-06T19:09:18.939Z,-0.20
2018-02-06T19:12:12.668Z,-0.20
2018-02-06T19:15:14.547Z,-0.20
2018-02-06T19:17:42.738Z,-0.10
2018-02-06T19:23:29.182Z,-0.20
2018-02-06T19:25:57.345Z,-0.20
2018-02-06T19:28:25.514Z,-0.20
2018-02-06T19:30:55.540Z,-0.10
2018-02-06T19:33:23.859Z,0.00
2018-02-06T19:35:52.978Z,0.00
2018-02-06T19:38:22.611Z,0.00
2018-02-06T19:40:54.894Z,0.00
2018-02-06T19:43:23.661Z,0.10
2018-02-06T19:45:51.878Z,0.10
2018-02-06T19:48:20.004Z,0.00
2018-02-06T19:50:50.323Z,0.00
2018-02-06T19:53:18.449Z,-0.10
2018-02-06T19:55:46.553Z,-0.20
2018-02-06T19:58:14.642Z,-0.20
2018-02-06T20:00:42.745Z,-0.20
2018-02-06T20:03:10.851Z,-0.10
2018-02-06T20:05:38.931Z,-0.20
2018-02-06T20:08:07.956Z,-0.20
2018-02-06T20:10:36.052Z,0.00
2018-02-06T20:13:04.178Z,-0.10
2018-02-06T20:15:33.209Z,0.00
2018-02-06T20:18:01.307Z,0.00
2018-02-06T20:20:29.437Z,0.00
2018-02-06T20:22:57.536Z,0.00
2018-02-06T20:25:25.645Z,0.00
2018-02-06T20:27:53.745Z,-0.10
2018-02-06T20:30:21.900Z,-0.20
2018-02-06T20:32:50.009Z,0.00
2018-02-06T20:35:18.158Z,0.00
2018-02-06T20:37:46.313Z,0.00
2018-02-06T20:40:14.415Z,0.00
2018-02-06T20:42:42.504Z,0.10
2018-02-06T20:45:10.691Z,0.00
2018-02-06T20:47:39.553Z,-0.10
2018-02-06T20:50:07.698Z,-0.20
2018-02-06T20:52:35.804Z,-0.20
2018-02-06T20:55:03.919Z,-0.10
2018-02-06T20:57:32.021Z,0.00
2018-02-06T21:00:00.125Z,-0.20
2018-02-06T21:02:28.249Z,-0.10
2018-02-06T21:04:56.359Z,-0.10
2018-02-06T21:07:24.466Z,-0.10
2018-02-06T21:09:53.356Z,-0.10
2018-02-06T21:12:22.220Z,-0.10
2018-02-06T21:14:50.354Z,-0.10
2018-02-06T21:17:18.463Z,-0.10
2018-02-06T21:19:46.577Z,-0.20
2018-02-06T21:22:14.692Z,-0.20
2018-02-06T21:24:42.807Z,-0.20
2018-02-06T21:27:11.683Z,-0.10
2018-02-06T21:29:39.829Z,-0.30
2018-02-06T21:32:07.967Z,-0.20
2018-02-06T21:34:36.094Z,-0.30
2018-02-06T21:37:04.184Z,-0.20
2018-02-06T21:39:32.315Z,-0.30
2018-02-06T21:42:00.427Z,-0.30
2018-02-06T21:44:28.541Z,-0.30
2018-02-06T21:46:56.649Z,-0.20
2018-02-06T21:49:24.755Z,-0.10
2018-02-06T21:51:53.632Z,-0.20
2018-02-06T21:54:21.735Z,-0.10
2018-02-06T21:56:49.872Z,-0.20
2018-02-06T21:59:17.983Z,-0.20
2018-02-06T22:01:48.599Z,-0.20
2018-02-06T22:04:17.456Z,-0.10
2018-02-06T22:06:45.598Z,-0.20
2018-02-06T22:09:13.704Z,-0.30
2018-02-06T22:11:41.812Z,-0.30
2018-02-06T22:14:09.932Z,-0.20
2018-02-06T22:16:39.089Z,-0.20
2018-02-06T22:19:07.209Z,-0.20
2018-02-06T22:21:35.331Z,-0.10
2018-02-06T22:24:03.420Z,-0.10
2018-02-06T22:26:31.541Z,-0.20
2018-02-06T22:29:00.650Z,-0.20
2018-02-06T22:31:29.524Z,-0.10
2018-02-06T22:33:57.658Z,-0.10
2018-02-06T22:36:25.760Z,-0.10
2018-02-06T22:38:53.871Z,-0.10
2018-02-06T22:41:21.971Z,-0.10
2018-02-06T22:43:50.112Z,-0.10
2018-02-06T22:46:18.224Z,-0.30
2018-02-06T22:48:46.364Z,-0.30
2018-02-06T22:51:15.249Z,-0.40
2018-02-06T22:53:44.107Z,-0.30
2018-02-06T22:56:12.200Z,-0.30
2018-02-06T22:58:40.309Z,-0.30
2018-02-06T23:01:08.396Z,-0.20
2018-02-06T23:03:36.523Z,-0.20
2018-02-06T23:06:04.614Z,-0.20
2018-02-06T23:08:32.733Z,-0.10
2018-02-06T23:11:00.830Z,-0.20
2018-02-06T23:13:28.953Z,-0.20
2018-02-06T23:15:57.073Z,-0.10
2018-02-06T23:18:25.183Z,-0.10
2018-02-06T23:20:53.297Z,-0.10
2018-02-06T23:23:21.422Z,-0.10
2018-02-06T23:25:49.548Z,-0.20
2018-02-06T23:28:17.643Z,-0.10
2018-02-06T23:30:45.758Z,-0.20
2018-02-06T23:33:14.310Z,-1.30
2018-02-06T23:35:42.788Z,-0.20
2018-02-06T23:38:10.887Z,-0.20
2018-02-06T23:40:39.011Z,-0.20
2018-02-06T23:43:22.665Z,-0.20
2018-02-06T23:45:54.273Z,-0.30
2018-02-06T23:48:22.582Z,-0.20
2018-02-06T23:50:50.737Z,-0.30
2018-02-06T23:53:18.892Z,-0.30
2018-02-06T23:55:47.019Z,-0.30
2018-02-06T23:58:15.695Z,-0.30
